Time;durP1;ratioP1;P1;durP2;ratioP2;P2;SDS_P1;SDS_P2;PMS_P1;PMS_P2;Temp;Humidity;BMP_temperature;BMP_pressure;BME280_temperature;BME280_humidity;BME280_pressure;Samples;Min_cycle;Max_cycle;Signal;HPM_P1;HPM_P2
2023/07/08 00:02:01;;;;;;;3.13;2.17;;;;;;;17.50;89.68;100407.44;6275344;28;20106;-72
2023/07/08 00:05:01;;;;;;;3.72;1.90;;;;;;;17.41;90.74;100397.66;6274108;28;20049;-72
2023/07/08 00:08:03;;;;;;;2.90;1.88;;;;;;;17.32;90.06;100404.56;6275305;28;20103;-69
2023/07/08 00:11:14;;;;;;;3.07;2.00;;;;;;;17.25;90.31;100401.56;6275039;28;20103;-69
2023/07/08 00:14:17;;;;;;;10.65;1.83;;;;;;;17.14;90.77;100404.28;6275091;28;20405;-69
2023/07/08 00:17:17;;;;;;;3.58;2.53;;;;;;;17.16;91.63;100407.63;6274935;28;20060;-69
2023/07/08 00:20:41;;;;;;;4.80;2.15;;;;;;;17.20;91.34;100410.84;6277146;28;20060;-68
2023/07/08 00:23:47;;;;;;;5.78;2.40;;;;;;;17.16;90.01;100412.91;6299271;28;20094;-69
2023/07/08 00:26:50;;;;;;;2.70;1.80;;;;;;;17.08;90.51;100410.06;6298655;28;20060;-69
2023/07/08 00:29:51;;;;;;;2.83;2.08;;;;;;;17.17;89.75;100409.28;6283410;28;20141;-69
2023/07/08 00:32:55;;;;;;;4.30;2.30;;;;;;;17.14;90.72;100409.56;6273599;28;20053;-69
2023/07/08 00:35:56;;;;;;;4.22;2.38;;;;;;;17.01;90.72;100407.09;6273574;28;20045;-69
2023/07/08 00:38:57;;;;;;;4.88;1.92;;;;;;;16.98;89.53;100407.34;6279679;28;20048;-69
2023/07/08 00:42:03;;;;;;;6.80;2.65;;;;;;;16.95;89.49;100404.97;6297936;28;20052;-69
2023/07/08 00:45:17;;;;;;;3.05;1.85;;;;;;;16.90;89.58;100407.13;6297666;28;20059;-69
2023/07/08 00:48:23;;;;;;;3.90;2.10;;;;;;;16.79;91.14;100401.88;6296751;28;20086;-69
2023/07/08 00:51:24;;;;;;;7.80;2.13;;;;;;;16.82;90.76;100402.50;6296327;28;20462;-69
2023/07/08 00:54:28;;;;;;;2.70;2.08;;;;;;;16.94;90.11;100403.28;6298129;28;20049;-71
2023/07/08 00:57:34;;;;;;;3.22;2.00;;;;;;;16.87;90.79;100408.22;6299085;28;20056;-71
2023/07/08 01:00:34;;;;;;;2.83;2.03;;;;;;;16.75;90.61;100400.47;6296045;28;20063;-72
2023/07/08 01:03:45;;;;;;;4.03;2.30;;;;;;;16.74;90.40;100397.00;6298514;28;20052;-72
2023/07/08 01:06:56;;;;;;;2.75;1.75;;;;;;;16.73;89.74;100403.22;6298802;28;20048;-72
2023/07/08 01:10:03;;;;;;;2.47;2.00;;;;;;;16.73;90.95;100395.31;6298114;28;20060;-72
2023/07/08 01:13:11;;;;;;;5.57;1.83;;;;;;;16.79;91.84;100392.19;6296422;28;20055;-72
2023/07/08 01:16:15;;;;;;;3.20;1.73;;;;;;;16.80;88.73;100393.00;6295740;28;20044;-72
2023/07/08 01:19:19;;;;;;;2.47;1.95;;;;;;;16.82;89.99;100386.72;6297269;28;20098;-72
2023/07/08 01:22:21;;;;;;;3.10;2.03;;;;;;;16.58;90.15;100383.41;6281940;28;20141;-72
2023/07/08 01:25:22;;;;;;;3.15;2.30;;;;;;;16.52;90.85;100388.19;6273680;28;20045;-72
2023/07/08 01:28:23;;;;;;;3.97;1.80;;;;;;;16.45;90.62;100394.06;6272298;28;20397;-72
2023/07/08 01:31:24;;;;;;;3.28;1.85;;;;;;;16.53;91.29;100383.75;6277592;28;20059;-72
2023/07/08 01:34:25;;;;;;;5.35;1.75;;;;;;;16.54;91.62;100387.25;6296611;28;20137;-72
2023/07/08 01:37:37;;;;;;;2.97;1.90;;;;;;;16.34;91.39;100392.28;6296873;28;20063;-72
2023/07/08 01:40:47;;;;;;;2.90;2.00;;;;;;;16.33;90.62;100385.38;6296709;28;20057;-72
2023/07/08 01:43:48;;;;;;;2.78;2.08;;;;;;;16.31;91.34;100380.22;6275118;28;20124;-72
2023/07/08 01:46:51;;;;;;;3.30;2.00;;;;;;;16.36;90.36;100387.75;6271646;28;20055;-72
2023/07/08 01:49:52;;;;;;;2.33;1.67;;;;;;;16.44;89.86;100377.44;6271746;28;20469;-72
2023/07/08 01:52:56;;;;;;;1.90;1.60;;;;;;;16.39;89.32;100392.78;6272454;28;20057;-72
2023/07/08 01:55:57;;;;;;;2.72;1.83;;;;;;;16.51;89.33;100383.03;6271376;28;20192;-69
2023/07/08 01:58:58;;;;;;;4.28;2.35;;;;;;;16.48;89.13;100383.31;6270848;28;20093;-69
2023/07/08 02:01:59;;;;;;;2.47;1.80;;;;;;;16.52;89.26;100385.56;6271196;28;20053;-69
2023/07/08 02:04:59;;;;;;;3.28;1.95;;;;;;;16.39;89.05;100381.38;6272039;28;20053;-69
2023/07/08 02:08:00;;;;;;;3.38;1.95;;;;;;;16.47;88.56;100379.84;6294575;28;20131;-69
2023/07/08 02:11:01;;;;;;;2.08;1.58;;;;;;;16.47;90.29;100377.19;6296042;28;20059;-69
2023/07/08 02:14:03;;;;;;;7.82;2.17;;;;;;;16.32;88.96;100381.88;6296886;28;20052;-69
2023/07/08 02:17:06;;;;;;;3.10;1.85;;;;;;;16.38;88.26;100382.38;6281667;28;20182;-69
2023/07/08 02:20:08;;;;;;;2.60;1.90;;;;;;;16.40;88.67;100373.38;6271294;28;20048;-69
2023/07/08 02:23:09;;;;;;;4.25;2.10;;;;;;;16.30;89.45;100377.69;6271562;28;20887;-70
2023/07/08 02:26:10;;;;;;;3.10;2.10;;;;;;;16.47;88.10;100373.72;6275288;28;20055;-70
2023/07/08 02:29:10;;;;;;;3.13;1.70;;;;;;;16.45;88.41;100376.50;6296531;28;20113;-69
2023/07/08 02:32:11;;;;;;;5.22;1.92;;;;;;;16.38;87.97;100366.56;6296656;28;20052;-69
2023/07/08 02:35:12;;;;;;;2.92;1.85;;;;;;;16.41;88.18;100382.09;6291576;28;20048;-69
2023/07/08 02:38:13;;;;;;;2.70;1.75;;;;;;;16.45;87.25;100386.16;6289499;28;20052;-69
2023/07/08 02:41:14;;;;;;;3.47;2.10;;;;;;;16.39;87.06;100384.03;6293607;28;20098;-69
2023/07/08 02:44:14;;;;;;;5.32;1.90;;;;;;;16.39;86.98;100387.50;6271748;28;20052;-69
2023/07/08 02:47:16;;;;;;;4.30;1.70;;;;;;;16.43;86.25;100385.44;6270393;28;20059;-69
2023/07/08 02:50:18;;;;;;;4.35;1.67;;;;;;;16.45;87.45;100387.03;6271622;28;20476;-72
2023/07/08 02:53:19;;;;;;;3.45;1.70;;;;;;;16.41;85.57;100387.38;6271227;28;20128;-72
2023/07/08 02:56:22;;;;;;;1.85;1.55;;;;;;;16.47;86.02;100382.47;6271612;28;20056;-72
2023/07/08 02:59:23;;;;;;;5.38;1.95;;;;;;;16.49;85.67;100396.34;6271553;28;20059;-72
2023/07/08 03:02:24;;;;;;;3.47;2.17;;;;;;;16.48;85.14;100399.09;6272760;28;20053;-72
2023/07/08 03:05:24;;;;;;;3.00;1.92;;;;;;;16.45;85.01;100388.78;6271313;28;20060;-72
2023/07/08 03:08:26;;;;;;;1.95;1.73;;;;;;;16.52;85.62;100392.63;6271206;28;20056;-72
2023/07/08 03:11:27;;;;;;;7.28;1.77;;;;;;;16.42;86.59;100402.22;6275524;28;20454;-72
2023/07/08 03:14:27;;;;;;;2.53;1.63;;;;;;;16.45;85.30;100391.44;6275974;28;20059;-72
2023/07/08 03:17:28;;;;;;;3.05;1.80;;;;;;;16.44;84.89;100400.31;6275351;28;20372;-72
2023/07/08 03:20:32;;;;;;;3.70;1.98;;;;;;;16.53;86.52;100407.47;6275203;28;20136;-72
2023/07/08 03:23:33;;;;;;;2.90;1.85;;;;;;;16.47;85.20;100406.19;6275008;28;20053;-72
2023/07/08 03:26:34;;;;;;;3.30;1.80;;;;;;;16.63;85.41;100403.13;6273410;28;20498;-72
2023/07/08 03:29:35;;;;;;;2.53;1.80;;;;;;;16.58;85.13;100404.47;6276033;28;20053;-72
2023/07/08 03:32:35;;;;;;;2.58;1.85;;;;;;;16.46;86.48;100408.91;6264402;28;20102;-69
2023/07/08 03:35:38;;;;;;;4.63;2.08;;;;;;;16.57;85.43;100415.97;6274641;28;20048;-69
2023/07/08 03:38:39;;;;;;;3.85;1.80;;;;;;;16.55;85.22;100407.34;6249938;28;20057;-69
2023/07/08 03:41:40;;;;;;;3.90;1.90;;;;;;;16.65;85.21;100422.28;6253348;28;20096;-69
2023/07/08 03:44:41;;;;;;;6.53;1.98;;;;;;;16.71;84.41;100413.88;6278427;28;20044;-69
2023/07/08 03:47:42;;;;;;;1.92;1.70;;;;;;;16.69;84.33;100413.16;6274783;28;20064;-69
2023/07/08 03:50:43;;;;;;;2.38;1.60;;;;;;;16.69;84.07;100415.78;6274588;28;20473;-69
2023/07/08 03:53:44;;;;;;;7.80;1.90;;;;;;;16.85;84.19;100423.34;6274040;28;20075;-68
2023/07/08 03:56:45;;;;;;;2.90;1.88;;;;;;;16.83;83.59;100425.25;6271580;28;20494;-69
2023/07/08 03:59:46;;;;;;;1.80;1.50;;;;;;;17.00;82.82;100434.41;6268049;28;20086;-69
2023/07/08 04:02:47;;;;;;;3.58;1.92;;;;;;;16.94;83.64;100429.66;6275091;28;20508;-69
2023/07/08 04:05:48;;;;;;;3.38;1.90;;;;;;;16.94;83.49;100432.28;6281537;28;20052;-69
2023/07/08 04:08:51;;;;;;;3.70;1.90;;;;;;;17.00;83.07;100438.84;6298177;28;20098;-69
2023/07/08 04:11:53;;;;;;;4.43;1.70;;;;;;;17.14;83.03;100448.28;6296575;28;20045;-70
2023/07/08 04:14:56;;;;;;;3.40;2.05;;;;;;;17.09;83.00;100440.72;6294697;28;20407;-72
2023/07/08 04:17:57;;;;;;;4.40;1.75;;;;;;;16.98;83.26;100432.88;6296816;28;20435;-72
2023/07/08 04:20:58;;;;;;;2.47;1.95;;;;;;;16.81;84.03;100429.81;6299048;28;20087;-72
2023/07/08 04:23:59;;;;;;;3.40;2.08;;;;;;;16.98;84.87;100435.50;6298804;28;20048;-71
2023/07/08 04:27:00;;;;;;;2.97;1.70;;;;;;;16.86;85.84;100437.34;6289639;28;20045;-72
2023/07/08 04:30:02;;;;;;;2.97;2.20;;;;;;;16.95;85.12;100433.97;6273693;28;20041;-72
2023/07/08 04:33:03;;;;;;;3.78;1.73;;;;;;;17.15;84.59;100434.13;6274527;28;20095;-69
2023/07/08 04:36:09;;;;;;;2.33;1.75;;;;;;;17.26;83.98;100434.91;6274655;28;20060;-70
2023/07/08 04:39:10;;;;;;;3.03;1.67;;;;;;;17.38;84.02;100434.84;6275631;28;20447;-69
2023/07/08 04:42:17;;;;;;;4.30;2.27;;;;;;;17.31;81.53;100439.78;6274524;28;20103;-69
2023/07/08 04:45:18;;;;;;;2.17;1.58;;;;;;;17.44;80.11;100437.81;6274241;28;20103;-69
2023/07/08 04:48:21;;;;;;;2.38;1.80;;;;;;;17.37;79.66;100438.47;6270777;28;20056;-69
2023/07/08 04:51:22;;;;;;;2.80;2.00;;;;;;;17.56;78.93;100435.09;6262179;28;20188;-70
2023/07/08 04:54:22;;;;;;;2.03;1.60;;;;;;;17.58;78.67;100431.38;6273830;28;20074;-69
2023/07/08 04:57:25;;;;;;;3.63;2.15;;;;;;;17.79;78.71;100427.88;6268742;28;20056;-70
2023/07/08 05:00:27;;;;;;;4.22;1.85;;;;;;;17.71;77.96;100433.81;6268738;28;20059;-69
2023/07/08 05:03:28;;;;;;;2.43;1.60;;;;;;;17.78;77.25;100431.50;6272704;28;20500;-69
2023/07/08 05:06:29;;;;;;;3.28;1.85;;;;;;;17.82;77.78;100438.19;6270443;28;20114;-69
2023/07/08 05:09:31;;;;;;;3.70;1.88;;;;;;;17.80;78.04;100430.38;6273903;28;20099;-69
2023/07/08 05:12:32;;;;;;;3.60;1.73;;;;;;;17.98;77.46;100443.03;6265771;28;20050;-69
2023/07/08 05:15:33;;;;;;;4.03;2.25;;;;;;;18.01;77.16;100438.28;6266128;28;20050;-68
2023/07/08 05:18:33;;;;;;;2.15;1.77;;;;;;;18.20;76.21;100441.97;6256051;28;20060;-69
2023/07/08 05:21:34;;;;;;;8.93;2.38;;;;;;;18.27;76.48;100454.53;6259588;28;20080;-69
2023/07/08 05:24:36;;;;;;;2.25;1.50;;;;;;;18.45;75.28;100446.81;6264082;28;20056;-69
2023/07/08 05:27:37;;;;;;;6.45;2.30;;;;;;;18.52;75.45;100449.75;6270141;28;20115;-68
2023/07/08 05:30:41;;;;;;;3.95;1.88;;;;;;;18.84;74.66;100452.22;6273599;28;20484;-69
2023/07/08 05:33:41;;;;;;;1.75;1.58;;;;;;;18.88;74.99;100453.59;6260783;28;20049;-69
2023/07/08 05:36:43;;;;;;;5.13;2.33;;;;;;;18.98;74.15;100447.47;6268522;28;20079;-70
2023/07/08 05:39:46;;;;;;;2.20;1.67;;;;;;;19.08;75.02;100448.31;6271474;28;20085;-70
2023/07/08 05:42:47;;;;;;;3.17;1.63;;;;;;;19.22;73.84;100461.13;6272032;28;20405;-69
2023/07/08 05:45:48;;;;;;;3.05;1.60;;;;;;;19.30;73.66;100455.97;6271486;28;20049;-69
2023/07/08 05:48:50;;;;;;;4.78;2.08;;;;;;;19.38;73.96;100460.56;6271846;28;20515;-69
2023/07/08 05:51:51;;;;;;;6.85;2.17;;;;;;;19.61;73.66;100457.59;6272179;28;20504;-70
2023/07/08 05:54:54;;;;;;;3.07;1.77;;;;;;;19.55;73.64;100459.00;6270428;28;20072;-70
2023/07/08 05:57:55;;;;;;;2.22;1.80;;;;;;;19.69;72.97;100461.19;6284828;28;20077;-71
2023/07/08 06:00:57;;;;;;;2.77;2.07;;;;;;;19.72;73.76;100463.59;6270529;28;20103;-71
2023/07/08 06:03:59;;;;;;;1.60;1.45;;;;;;;19.92;72.13;100469.66;6271604;28;20136;-70
2023/07/08 06:06:59;;;;;;;2.45;1.90;;;;;;;20.16;71.38;100476.28;6270728;28;20052;-70
2023/07/08 06:10:03;;;;;;;6.47;1.80;;;;;;;20.27;67.39;100475.28;6272560;28;20424;-70
2023/07/08 06:13:04;;;;;;;3.67;1.52;;;;;;;20.38;69.58;100474.25;6264794;28;20052;-70
2023/07/08 06:16:07;;;;;;;2.43;1.77;;;;;;;20.53;68.31;100480.72;6265628;28;20119;-69
2023/07/08 06:19:09;;;;;;;1.60;1.45;;;;;;;20.54;67.53;100466.47;6271273;28;20048;-70
2023/07/08 06:22:12;;;;;;;4.10;1.95;;;;;;;20.85;66.23;100471.50;6270038;28;20131;-70
2023/07/08 06:25:15;;;;;;;2.38;1.50;;;;;;;21.13;65.67;100481.06;6271130;28;20056;-70
2023/07/08 06:28:16;;;;;;;2.53;1.70;;;;;;;21.41;65.30;100469.50;6271058;28;20049;-70
2023/07/08 06:31:20;;;;;;;2.30;1.63;;;;;;;21.62;62.73;100461.22;6269835;28;20045;-70
2023/07/08 06:34:23;;;;;;;3.42;1.67;;;;;;;21.78;63.17;100468.47;6270583;28;20053;-70
2023/07/08 06:37:24;;;;;;;3.08;1.63;;;;;;;22.04;62.09;100476.44;6270027;28;20048;-70
2023/07/08 06:40:24;;;;;;;3.70;1.80;;;;;;;22.06;59.55;100474.47;6282975;28;20083;-70
2023/07/08 06:43:28;;;;;;;5.53;1.50;;;;;;;22.09;60.73;100477.63;6269751;28;20124;-70
2023/07/08 06:46:32;;;;;;;3.58;1.77;;;;;;;22.36;59.99;100475.78;6270385;28;20194;-70
2023/07/08 06:49:32;;;;;;;2.30;1.48;;;;;;;22.54;59.20;100473.84;6291021;28;20056;-69
2023/07/08 06:52:36;;;;;;;2.67;1.53;;;;;;;22.62;58.73;100466.91;6294537;28;20145;-70
2023/07/08 06:55:38;;;;;;;2.00;1.40;;;;;;;22.82;56.46;100459.47;6287068;28;20128;-71
2023/07/08 06:58:39;;;;;;;3.38;1.80;;;;;;;23.12;56.71;100458.03;6268581;28;20416;-70
2023/07/08 07:01:40;;;;;;;1.83;1.50;;;;;;;23.23;56.04;100460.38;6295119;28;20056;-70
2023/07/08 07:04:42;;;;;;;1.83;1.50;;;;;;;23.67;54.74;100465.34;6268614;28;20054;-70
2023/07/08 07:07:47;;;;;;;2.72;1.50;;;;;;;23.56;53.44;100456.88;6255661;28;20063;-70
2023/07/08 07:10:47;;;;;;;2.95;1.50;;;;;;;23.70;52.42;100465.00;6244229;28;20092;-70
2023/07/08 07:13:48;;;;;;;5.83;1.37;;;;;;;23.95;54.18;100467.66;6244715;28;20057;-69
2023/07/08 07:16:54;;;;;;;4.17;1.60;;;;;;;24.02;52.45;100465.13;6244497;28;20356;-70
2023/07/08 07:19:54;;;;;;;5.63;1.55;;;;;;;24.28;51.62;100470.22;6256477;28;20429;-69
2023/07/08 07:22:55;;;;;;;3.20;1.47;;;;;;;24.35;51.06;100471.16;6269073;28;20056;-70
2023/07/08 07:25:57;;;;;;;1.70;1.30;;;;;;;24.14;50.10;100472.56;6270049;28;20481;-70
2023/07/08 07:28:58;;;;;;;2.13;1.30;;;;;;;24.35;49.84;100473.84;6268844;28;20056;-70
2023/07/08 07:32:00;;;;;;;1.83;1.20;;;;;;;24.47;47.65;100471.63;6267967;28;20428;-70
2023/07/08 07:35:01;;;;;;;2.38;1.48;;;;;;;24.80;49.03;100476.81;6254547;28;20314;-69
2023/07/08 07:38:02;;;;;;;1.50;1.30;;;;;;;25.08;47.95;100475.28;6266786;28;20075;-70
2023/07/08 07:41:06;;;;;;;2.30;1.40;;;;;;;25.21;49.47;100484.56;6268182;28;20475;-70
2023/07/08 07:44:09;;;;;;;3.38;1.23;;;;;;;25.38;47.07;100482.59;6269868;28;20451;-70
2023/07/08 07:47:09;;;;;;;1.73;1.25;;;;;;;25.52;47.87;100476.47;6268567;28;20056;-71
2023/07/08 07:50:10;;;;;;;3.03;1.67;;;;;;;25.75;48.94;100484.41;6268841;28;20425;-71
2023/07/08 07:53:14;;;;;;;3.15;1.52;;;;;;;25.89;46.66;100483.63;6268455;28;20052;-70
2023/07/08 07:56:14;;;;;;;1.30;1.20;;;;;;;26.20;46.49;100487.16;6268966;28;20176;-71
2023/07/08 07:59:15;;;;;;;4.73;1.20;;;;;;;26.21;44.08;100483.44;6273131;28;20056;-70
2023/07/08 08:02:16;;;;;;;1.53;1.30;;;;;;;25.97;43.72;100481.91;6273045;28;20270;-70
2023/07/08 08:05:18;;;;;;;2.88;1.27;;;;;;;26.13;43.58;100484.41;6272731;28;20075;-70
2023/07/08 08:08:20;;;;;;;2.65;1.30;;;;;;;26.38;43.52;100476.91;6272771;28;20059;-70
2023/07/08 08:11:21;;;;;;;;;;;;;;;26.48;41.67;100479.25;6274607;28;20057;-70
2023/07/08 08:14:22;;;;;;;2.80;1.20;;;;;;;26.23;42.31;100471.56;6273840;28;19920;-68
2023/07/08 08:17:25;;;;;;;1.00;0.90;;;;;;;26.46;41.51;100475.94;6272837;28;20733;-69
2023/07/08 08:20:26;;;;;;;0.93;0.90;;;;;;;26.42;39.31;100469.31;6273892;28;20049;-69
2023/07/08 08:23:29;;;;;;;1.45;1.33;;;;;;;26.67;39.50;100475.22;6273977;28;20182;-68
2023/07/08 08:26:30;;;;;;;1.30;1.13;;;;;;;27.00;43.39;100464.03;6272364;28;20055;-69
2023/07/08 08:29:33;;;;;;;1.97;1.13;;;;;;;27.07;41.76;100464.91;6272373;28;20049;-69
2023/07/08 08:32:36;;;;;;;1.95;1.05;;;;;;;26.91;39.03;100463.28;6272499;28;20053;-68
2023/07/08 08:35:37;;;;;;;1.42;1.17;;;;;;;27.01;40.00;100463.81;6273265;28;20044;-68
2023/07/08 08:38:37;;;;;;;5.37;1.20;;;;;;;26.92;38.07;100464.97;6273316;28;20048;-69
2023/07/08 08:41:42;;;;;;;1.47;1.27;;;;;;;27.10;37.74;100462.69;6272156;28;20060;-69
2023/07/08 08:44:45;;;;;;;2.00;1.15;;;;;;;26.85;39.42;100461.38;6273385;28;20274;-69
2023/07/08 08:47:54;;;;;;;3.00;1.40;;;;;;;26.81;39.74;100460.94;6273061;28;20140;-68
2023/07/08 08:51:15;;;;;;;1.27;0.95;;;;;;;26.49;39.73;100472.91;6265887;28;20485;-68
2023/07/08 08:54:16;;;;;;;;;;;;;;;26.42;40.46;100471.97;6261212;28;20050;-68
2023/07/08 08:57:32;;;;;;;1.53;1.00;;;;;;;26.85;39.15;100462.22;6247244;28;20009;-69
2023/07/08 09:17:59;;;;;;;1.85;1.15;;;;;;;27.38;39.75;100453.88;6293458;28;20379;-71
2023/07/08 09:21:14;;;;;;;1.88;1.17;;;;;;;28.21;37.78;100464.75;6287399;28;20076;-70
2023/07/08 09:24:27;;;;;;;1.60;1.00;;;;;;;28.01;39.36;100467.31;6293183;28;20132;-71
2023/07/08 09:27:28;;;;;;;1.45;1.25;;;;;;;28.17;37.88;100465.31;6293386;28;20086;-71
2023/07/08 09:30:31;;;;;;;1.30;1.00;;;;;;;28.37;38.17;100458.19;6293147;28;20052;-71
2023/07/08 09:33:32;;;;;;;1.17;1.00;;;;;;;28.00;37.86;100460.28;6293370;28;20098;-71
2023/07/08 09:36:32;;;;;;;3.53;1.08;;;;;;;28.73;41.12;100449.06;6274100;28;20049;-70
2023/07/08 09:39:35;;;;;;;2.50;1.17;;;;;;;28.55;39.30;100454.16;6267118;28;20052;-71
2023/07/08 09:42:36;;;;;;;1.33;1.02;;;;;;;26.98;37.72;100452.69;6267939;28;20053;-71
2023/07/08 09:45:58;;;;;;;1.95;1.20;;;;;;;27.18;35.97;100445.66;6268168;28;20432;-71
2023/07/08 09:49:08;;;;;;;1.10;0.90;;;;;;;27.11;37.29;100444.75;6267223;28;20103;-71
2023/07/08 09:52:12;;;;;;;1.13;0.93;;;;;;;27.85;37.98;100456.88;6267731;28;20084;-71
2023/07/08 09:55:15;;;;;;;2.03;1.00;;;;;;;28.68;38.65;100457.72;6266473;28;20042;-71
2023/07/08 09:58:30;;;;;;;2.33;1.10;;;;;;;29.15;37.23;100467.72;6267980;28;20049;-71
2023/07/08 10:01:32;;;;;;;2.30;1.10;;;;;;;28.99;37.64;100453.63;6271973;28;20576;-71
2023/07/08 10:04:33;;;;;;;1.48;1.08;;;;;;;28.79;37.04;100463.53;6267518;28;20086;-70
2023/07/08 10:07:33;;;;;;;1.25;1.13;;;;;;;27.90;35.76;100455.31;6267466;28;20053;-70
2023/07/08 10:10:37;;;;;;;1.40;1.15;;;;;;;28.24;35.08;100450.91;6267489;28;20054;-70
2023/07/08 10:13:42;;;;;;;1.35;1.05;;;;;;;28.58;36.91;100454.59;6266147;28;20053;-71
2023/07/08 10:16:43;;;;;;;2.47;1.00;;;;;;;28.70;34.83;100454.81;6261725;28;20409;-71
2023/07/08 10:19:44;;;;;;;1.52;1.00;;;;;;;29.44;34.10;100453.03;6249359;28;20057;-71
2023/07/08 10:22:57;;;;;;;1.33;1.00;;;;;;;28.90;35.85;100463.72;6258028;28;20595;-69
2023/07/08 10:26:24;;;;;;;1.95;1.27;;;;;;;28.36;35.47;100453.03;6274175;28;20052;-72
2023/07/08 10:29:41;;;;;;;2.22;1.08;;;;;;;29.17;36.49;100463.78;6274713;28;20424;-70
2023/07/08 10:33:13;;;;;;;1.17;0.82;;;;;;;29.46;35.06;100457.16;6273892;28;20056;-70
2023/07/08 10:36:16;;;;;;;1.90;1.08;;;;;;;29.96;34.91;100458.56;6274893;28;20485;-70
2023/07/08 10:39:17;;;;;;;1.98;1.25;;;;;;;29.64;34.07;100451.16;6266479;28;20489;-72
2023/07/08 10:42:48;;;;;;;1.98;1.05;;;;;;;28.66;34.73;100450.88;6259674;28;20135;-70
2023/07/08 10:46:15;;;;;;;1.35;1.00;;;;;;;29.11;34.33;100451.19;6254731;28;20041;-70
2023/07/08 10:49:27;;;;;;;0.88;0.80;;;;;;;29.53;34.89;100447.25;6260112;28;20094;-72
2023/07/08 10:52:56;;;;;;;4.90;1.30;;;;;;;30.33;35.73;100446.25;6271509;28;20049;-71
2023/07/08 10:56:13;;;;;;;1.80;1.27;;;;;;;29.39;33.44;100442.09;6271345;28;20079;-72
2023/07/08 10:59:29;;;;;;;1.83;1.30;;;;;;;29.69;35.73;100450.53;6273635;28;20041;-71
2023/07/08 11:03:20;;;;;;;1.27;1.15;;;;;;;30.01;33.72;100451.53;6266320;28;20052;-71
2023/07/08 11:06:50;;;;;;;0.82;0.80;;;;;;;29.51;34.03;100448.50;6258141;28;20548;-71
2023/07/08 11:10:02;;;;;;;1.27;0.90;;;;;;;29.75;34.21;100440.84;6249592;28;20408;-70
2023/07/08 11:13:17;;;;;;;1.65;1.30;;;;;;;29.30;33.55;100434.25;6259852;28;20048;-71
2023/07/08 11:16:32;;;;;;;2.03;1.10;;;;;;;29.25;33.41;100425.16;6281967;28;20102;-72
2023/07/08 11:19:40;;;;;;;7.50;1.58;;;;;;;30.03;34.07;100448.63;6282589;28;20489;-70
2023/07/08 11:23:12;;;;;;;1.15;1.05;;;;;;;29.49;33.15;100439.81;6262153;28;20060;-70
2023/07/08 11:26:25;;;;;;;1.83;0.98;;;;;;;29.06;33.14;100438.34;6279638;28;20048;-70
2023/07/08 11:29:36;;;;;;;2.85;1.10;;;;;;;29.37;35.44;100436.94;6287066;28;20451;-70
2023/07/08 11:32:38;;;;;;;1.17;0.98;;;;;;;30.09;36.43;100443.22;6273529;28;20056;-72
2023/07/08 11:35:44;;;;;;;1.33;1.10;;;;;;;30.62;34.95;100447.56;6273958;28;20591;-72
2023/07/08 11:38:49;;;;;;;1.20;1.10;;;;;;;29.85;35.55;100452.81;6273584;28;20062;-72
2023/07/08 11:42:03;;;;;;;3.85;1.00;;;;;;;30.59;33.40;100439.09;6259579;28;20099;-74
2023/07/08 11:45:11;;;;;;;1.27;1.17;;;;;;;30.52;34.07;100434.56;6276216;28;20042;-72
2023/07/08 11:48:16;;;;;;;9.30;1.42;;;;;;;30.51;38.63;100434.78;6287829;28;20055;-72
2023/07/08 11:51:24;;;;;;;2.17;1.15;;;;;;;30.43;31.17;100435.84;6273229;28;20049;-72
2023/07/08 11:54:30;;;;;;;3.33;1.25;;;;;;;29.78;31.96;100433.19;6288911;28;20053;-72
2023/07/08 11:57:38;;;;;;;1.58;1.10;;;;;;;30.16;32.76;100428.91;6269365;28;20501;-74
2023/07/08 12:00:41;;;;;;;1.88;1.10;;;;;;;29.94;33.78;100421.16;6283106;28;20093;-72
2023/07/08 12:03:51;;;;;;;1.50;1.00;;;;;;;30.14;35.24;100426.44;6295820;28;20084;-72
2023/07/08 12:07:30;;;;;;;1.23;0.82;;;;;;;30.20;33.64;100422.06;6269058;28;20048;-72
2023/07/08 12:10:39;;;;;;;1.02;0.80;;;;;;;30.59;34.18;100412.97;6262002;28;20416;-72
2023/07/08 12:13:40;;;;;;;1.33;1.00;;;;;;;29.98;33.15;100408.06;6263034;28;20046;-70
2023/07/08 12:16:42;;;;;;;1.42;1.08;;;;;;;29.60;32.70;100406.91;6274042;28;20057;-70
2023/07/08 12:19:46;;;;;;;3.70;1.25;;;;;;;29.77;33.28;100410.00;6287646;28;20048;-71
2023/07/08 12:22:50;;;;;;;1.73;1.00;;;;;;;30.34;33.64;100402.16;6288106;28;20048;-70
2023/07/08 12:25:53;;;;;;;1.23;1.10;;;;;;;30.04;34.10;100404.53;6283150;28;20040;-70
2023/07/08 12:28:53;;;;;;;1.42;1.00;;;;;;;30.08;33.96;100401.22;6293090;28;20490;-70
2023/07/08 12:32:00;;;;;;;2.00;1.15;;;;;;;30.37;36.68;100400.88;6262222;28;20053;-70
2023/07/08 12:35:05;;;;;;;0.80;0.80;;;;;;;30.10;36.04;100403.69;6286699;28;20041;-70
2023/07/08 12:38:40;;;;;;;0.70;0.70;;;;;;;30.10;34.90;100391.06;6271746;28;20059;-70
2023/07/08 12:41:42;;;;;;;1.75;1.17;;;;;;;30.58;36.92;100386.25;6271596;28;20075;-70
2023/07/08 12:44:44;;;;;;;1.52;1.10;;;;;;;30.36;33.45;100385.78;6269701;28;20044;-72
2023/07/08 12:47:45;;;;;;;2.22;1.30;;;;;;;30.75;35.11;100382.00;6271748;28;20052;-71
2023/07/08 12:50:46;;;;;;;2.72;1.27;;;;;;;30.35;33.45;100389.50;6270530;28;20044;-72
2023/07/08 12:53:47;;;;;;;2.03;1.00;;;;;;;29.85;32.40;100390.13;6295076;28;20048;-71
2023/07/08 12:56:49;;;;;;;0.80;0.80;;;;;;;29.85;35.46;100387.44;6275101;28;20064;-72
2023/07/08 12:59:52;;;;;;;2.05;1.27;;;;;;;30.29;32.58;100389.34;6278433;28;20358;-70
2023/07/08 13:03:18;;;;;;;2.13;0.85;;;;;;;29.95;32.03;100376.22;6270239;28;20057;-70
2023/07/08 13:06:24;;;;;;;2.20;1.20;;;;;;;29.90;32.33;100383.06;6279286;28;20051;-70
2023/07/08 13:09:35;;;;;;;1.10;1.00;;;;;;;30.51;35.40;100378.25;6267108;28;20107;-70
2023/07/08 13:12:40;;;;;;;2.10;0.90;;;;;;;30.50;33.32;100369.34;6281193;28;20045;-72
2023/07/08 13:15:42;;;;;;;4.05;1.05;;;;;;;30.58;33.85;100368.25;6280455;28;20056;-70
2023/07/08 13:18:43;;;;;;;1.10;1.00;;;;;;;30.57;34.02;100368.47;6265356;28;20099;-70
2023/07/08 13:21:44;;;;;;;;;;;;;;;30.49;33.00;100367.69;6267487;28;20049;-70
2023/07/08 13:24:45;;;;;;;1.85;1.20;;;;;;;30.47;35.20;100368.94;6269721;28;20422;-70
2023/07/08 13:28:01;;;;;;;1.80;1.08;;;;;;;30.82;36.07;100361.22;6270348;28;20484;-70
2023/07/08 13:31:44;;;;;;;3.05;1.23;;;;;;;30.35;33.42;100347.28;6286773;28;20052;-73
2023/07/08 13:35:07;;;;;;;3.35;1.25;;;;;;;29.67;34.18;100358.50;6214978;28;20497;-71
2023/07/08 13:38:34;;;;;;;2.80;0.98;;;;;;;29.23;33.55;100352.00;6269205;28;20174;-72
2023/07/08 13:41:36;;;;;;;1.67;1.10;;;;;;;29.66;35.33;100355.00;6275115;28;20091;-72
2023/07/08 13:44:48;;;;;;;1.30;1.05;;;;;;;30.23;34.33;100362.41;6271938;28;20057;-70
2023/07/08 13:48:00;;;;;;;1.35;1.00;;;;;;;30.61;35.34;100354.34;6267300;28;20080;-72
2023/07/08 13:51:10;;;;;;;1.83;0.88;;;;;;;30.16;32.78;100356.25;6268440;28;20079;-72
2023/07/08 13:54:38;;;;;;;2.75;1.00;;;;;;;30.05;33.19;100358.59;6282429;28;20045;-72
2023/07/08 13:57:39;;;;;;;1.25;0.90;;;;;;;29.81;32.92;100354.75;6272981;28;20127;-72
2023/07/08 14:00:40;;;;;;;2.13;1.10;;;;;;;28.91;32.86;100346.38;6275199;28;20056;-72
2023/07/08 14:03:41;;;;;;;1.23;0.93;;;;;;;29.22;33.50;100355.69;6273624;28;20052;-72
2023/07/08 14:06:41;;;;;;;1.35;1.23;;;;;;;29.28;33.03;100358.41;6286950;28;20064;-71
2023/07/08 14:09:42;;;;;;;3.35;1.00;;;;;;;29.36;34.20;100351.97;6292412;28;20048;-71
2023/07/08 14:12:43;;;;;;;1.17;0.90;;;;;;;29.11;33.14;100349.94;6271509;28;20056;-70
2023/07/08 14:15:45;;;;;;;2.30;1.20;;;;;;;29.47;37.73;100350.50;6271256;28;20060;-71
2023/07/08 14:18:45;;;;;;;1.30;1.13;;;;;;;29.87;37.68;100348.53;6273693;28;20614;-71
2023/07/08 14:21:51;;;;;;;2.58;1.38;;;;;;;29.51;34.15;100349.88;6258952;28;20053;-72
2023/07/08 14:24:55;;;;;;;2.17;1.13;;;;;;;29.84;35.10;100356.22;6291281;28;20049;-71
2023/07/08 14:27:56;;;;;;;1.05;0.95;;;;;;;29.73;35.57;100345.09;6274414;28;20625;-71
2023/07/08 14:30:57;;;;;;;2.38;1.20;;;;;;;29.79;34.52;100347.94;6293388;28;20046;-71
2023/07/08 14:34:12;;;;;;;2.58;1.10;;;;;;;29.32;36.61;100353.41;6280984;28;20097;-70
2023/07/08 14:37:16;;;;;;;2.13;0.95;;;;;;;29.30;32.93;100348.28;6284114;28;20041;-70
2023/07/08 14:40:23;;;;;;;4.88;1.50;;;;;;;29.26;34.22;100354.25;6272995;28;20050;-72